sensor_id;sensor_type;location;lat;lon;timestamp;P1;durP1;ratioP1;P2;durP2;ratioP2
55082;SDS011;40978;52.850;6.506;2022-11-15T00:00:32;23.63;;;20.13;;
55082;SDS011;40978;52.850;6.506;2022-11-15T00:02:58;26.27;;;19.77;;
55082;SDS011;40978;52.850;6.506;2022-11-15T00:05:24;23.80;;;20.13;;
55082;SDS011;40978;52.850;6.506;2022-11-15T00:07:50;26.27;;;20.13;;
55082;SDS011;40978;52.850;6.506;2022-11-15T00:10:15;25.48;;;20.77;;
55082;SDS011;40978;52.850;6.506;2022-11-15T00:12:41;24.00;;;19.65;;
55082;SDS011;40978;52.850;6.506;2022-11-15T00:15:07;25.50;;;20.17;;
55082;SDS011;40978;52.850;6.506;2022-11-15T00:17:33;21.95;;;18.77;;
55082;SDS011;40978;52.850;6.506;2022-11-15T00:19:59;25.65;;;19.38;;
55082;SDS011;40978;52.850;6.506;2022-11-15T00:22:24;22.92;;;19.30;;
55082;SDS011;40978;52.850;6.506;2022-11-15T00:24:55;23.98;;;18.77;;
55082;SDS011;40978;52.850;6.506;2022-11-15T00:27:21;25.20;;;20.23;;
55082;SDS011;40978;52.850;6.506;2022-11-15T00:29:47;28.17;;;22.52;;
55082;SDS011;40978;52.850;6.506;2022-11-15T00:32:12;27.92;;;22.83;;
55082;SDS011;40978;52.850;6.506;2022-11-15T00:34:38;26.45;;;21.88;;
55082;SDS011;40978;52.850;6.506;2022-11-15T00:37:04;26.83;;;22.05;;
55082;SDS011;40978;52.850;6.506;2022-11-15T00:39:30;23.65;;;20.25;;
55082;SDS011;40978;52.850;6.506;2022-11-15T00:41:56;25.45;;;20.73;;
55082;SDS011;40978;52.850;6.506;2022-11-15T00:44:22;26.27;;;21.85;;
55082;SDS011;40978;52.850;6.506;2022-11-15T00:46:47;26.65;;;20.48;;
55082;SDS011;40978;52.850;6.506;2022-11-15T00:49:13;24.55;;;20.50;;
55082;SDS011;40978;52.850;6.506;2022-11-15T00:51:39;24.67;;;20.10;;
55082;SDS011;40978;52.850;6.506;2022-11-15T00:54:04;26.95;;;20.92;;
55082;SDS011;40978;52.850;6.506;2022-11-15T00:56:30;24.60;;;20.75;;
55082;SDS011;40978;52.850;6.506;2022-11-15T00:58:56;24.08;;;20.20;;
55082;SDS011;40978;52.850;6.506;2022-11-15T01:01:21;23.27;;;19.67;;
55082;SDS011;40978;52.850;6.506;2022-11-15T01:03:47;25.30;;;19.63;;
55082;SDS011;40978;52.850;6.506;2022-11-15T01:06:13;25.85;;;19.35;;
55082;SDS011;40978;52.850;6.506;2022-11-15T01:08:39;23.63;;;18.73;;
55082;SDS011;40978;52.850;6.506;2022-11-15T01:11:06;26.55;;;19.13;;
55082;SDS011;40978;52.850;6.506;2022-11-15T01:13:35;25.33;;;18.98;;
55082;SDS011;40978;52.850;6.506;2022-11-15T01:16:14;24.15;;;18.60;;
55082;SDS011;40978;52.850;6.506;2022-11-15T01:18:42;24.60;;;19.27;;
55082;SDS011;40978;52.850;6.506;2022-11-15T01:21:09;24.33;;;19.50;;
55082;SDS011;40978;52.850;6.506;2022-11-15T01:23:36;27.20;;;19.70;;
55082;SDS011;40978;52.850;6.506;2022-11-15T01:26:03;27.92;;;21.17;;
55082;SDS011;40978;52.850;6.506;2022-11-15T01:28:33;26.42;;;19.95;;
55082;SDS011;40978;52.850;6.506;2022-11-15T01:31:01;27.95;;;21.38;;
55082;SDS011;40978;52.850;6.506;2022-11-15T01:33:28;27.50;;;21.42;;
55082;SDS011;40978;52.850;6.506;2022-11-15T01:35:55;29.35;;;21.10;;
55082;SDS011;40978;52.850;6.506;2022-11-15T01:38:21;28.95;;;21.30;;
55082;SDS011;40978;52.850;6.506;2022-11-15T01:40:47;29.13;;;21.08;;
55082;SDS011;40978;52.850;6.506;2022-11-15T01:43:24;31.17;;;22.67;;
55082;SDS011;40978;52.850;6.506;2022-11-15T01:48:47;28.83;;;21.00;;
55082;SDS011;40978;52.850;6.506;2022-11-15T01:51:16;25.85;;;20.10;;
55082;SDS011;40978;52.850;6.506;2022-11-15T01:53:45;27.42;;;20.40;;
55082;SDS011;40978;52.850;6.506;2022-11-15T01:56:16;28.05;;;21.30;;
55082;SDS011;40978;52.850;6.506;2022-11-15T01:58:44;28.45;;;20.77;;
55082;SDS011;40978;52.850;6.506;2022-11-15T02:01:12;29.35;;;22.00;;
55082;SDS011;40978;52.850;6.506;2022-11-15T02:03:42;27.60;;;19.83;;
55082;SDS011;40978;52.850;6.506;2022-11-15T02:06:19;26.60;;;20.75;;
55082;SDS011;40978;52.850;6.506;2022-11-15T02:08:46;26.75;;;20.73;;
55082;SDS011;40978;52.850;6.506;2022-11-15T02:11:12;30.58;;;21.45;;
55082;SDS011;40978;52.850;6.506;2022-11-15T02:13:38;27.30;;;19.98;;
55082;SDS011;40978;52.850;6.506;2022-11-15T02:18:48;28.77;;;20.20;;
55082;SDS011;40978;52.850;6.506;2022-11-15T02:27:13;26.52;;;19.33;;
55082;SDS011;40978;52.850;6.506;2022-11-15T02:32:53;28.90;;;19.58;;
55082;SDS011;40978;52.850;6.506;2022-11-15T02:37:54;30.17;;;20.42;;
55082;SDS011;40978;52.850;6.506;2022-11-15T02:43:00;30.77;;;20.48;;
55082;SDS011;40978;52.850;6.506;2022-11-15T02:45:51;30.10;;;20.83;;
55082;SDS011;40978;52.850;6.506;2022-11-15T02:48:23;32.55;;;20.33;;
55082;SDS011;40978;52.850;6.506;2022-11-15T02:50:50;31.65;;;21.15;;
55082;SDS011;40978;52.850;6.506;2022-11-15T02:53:17;31.23;;;20.38;;
55082;SDS011;40978;52.850;6.506;2022-11-15T02:55:49;31.90;;;22.52;;
55082;SDS011;40978;52.850;6.506;2022-11-15T03:02:06;35.78;;;23.17;;
55082;SDS011;40978;52.850;6.506;2022-11-15T03:06:53;34.58;;;21.63;;
55082;SDS011;40978;52.850;6.506;2022-11-15T03:09:52;43.58;;;22.75;;
55082;SDS011;40978;52.850;6.506;2022-11-15T03:12:34;37.95;;;22.13;;
55082;SDS011;40978;52.850;6.506;2022-11-15T03:17:53;39.88;;;23.13;;
55082;SDS011;40978;52.850;6.506;2022-11-15T03:20:23;43.72;;;24.15;;
55082;SDS011;40978;52.850;6.506;2022-11-15T03:22:52;40.25;;;22.95;;
55082;SDS011;40978;52.850;6.506;2022-11-15T03:25:21;42.97;;;24.05;;
55082;SDS011;40978;52.850;6.506;2022-11-15T03:27:52;43.83;;;24.98;;
55082;SDS011;40978;52.850;6.506;2022-11-15T03:30:20;44.83;;;24.95;;
55082;SDS011;40978;52.850;6.506;2022-11-15T03:32:51;47.10;;;24.92;;
55082;SDS011;40978;52.850;6.506;2022-11-15T03:35:24;44.80;;;25.83;;
55082;SDS011;40978;52.850;6.506;2022-11-15T03:40:41;45.25;;;25.45;;
55082;SDS011;40978;52.850;6.506;2022-11-15T03:43:12;49.03;;;25.70;;
55082;SDS011;40978;52.850;6.506;2022-11-15T03:45:54;44.53;;;25.33;;
55082;SDS011;40978;52.850;6.506;2022-11-15T03:48:25;48.22;;;26.38;;
55082;SDS011;40978;52.850;6.506;2022-11-15T03:50:55;52.30;;;28.63;;
55082;SDS011;40978;52.850;6.506;2022-11-15T03:53:21;51.05;;;27.17;;
55082;SDS011;40978;52.850;6.506;2022-11-15T03:55:47;54.08;;;27.23;;
55082;SDS011;40978;52.850;6.506;2022-11-15T03:58:12;54.55;;;28.15;;
55082;SDS011;40978;52.850;6.506;2022-11-15T04:00:38;52.55;;;29.42;;
55082;SDS011;40978;52.850;6.506;2022-11-15T04:03:04;61.42;;;30.13;;
55082;SDS011;40978;52.850;6.506;2022-11-15T04:05:30;58.10;;;30.90;;
55082;SDS011;40978;52.850;6.506;2022-11-15T04:07:55;59.92;;;29.67;;
55082;SDS011;40978;52.850;6.506;2022-11-15T04:10:21;62.40;;;30.10;;
55082;SDS011;40978;52.850;6.506;2022-11-15T04:12:47;62.38;;;28.63;;
55082;SDS011;40978;52.850;6.506;2022-11-15T04:15:16;65.63;;;32.28;;
55082;SDS011;40978;52.850;6.506;2022-11-15T04:17:48;68.72;;;31.42;;
55082;SDS011;40978;52.850;6.506;2022-11-15T04:20:16;74.30;;;33.78;;
55082;SDS011;40978;52.850;6.506;2022-11-15T04:23:04;61.40;;;30.98;;
55082;SDS011;40978;52.850;6.506;2022-11-15T04:25:55;62.38;;;32.58;;
55082;SDS011;40978;52.850;6.506;2022-11-15T04:28:23;77.30;;;33.40;;
55082;SDS011;40978;52.850;6.506;2022-11-15T04:30:48;71.05;;;33.75;;
55082;SDS011;40978;52.850;6.506;2022-11-15T04:33:14;79.57;;;34.67;;
55082;SDS011;40978;52.850;6.506;2022-11-15T04:35:41;81.32;;;33.88;;
55082;SDS011;40978;52.850;6.506;2022-11-15T04:38:08;74.82;;;33.13;;
55082;SDS011;40978;52.850;6.506;2022-11-15T04:40:35;88.22;;;36.45;;
55082;SDS011;40978;52.850;6.506;2022-11-15T04:43:01;79.50;;;34.97;;
55082;SDS011;40978;52.850;6.506;2022-11-15T04:45:27;83.70;;;35.15;;
55082;SDS011;40978;52.850;6.506;2022-11-15T04:47:53;83.13;;;37.10;;
55082;SDS011;40978;52.850;6.506;2022-11-15T04:50:19;73.53;;;35.40;;
55082;SDS011;40978;52.850;6.506;2022-11-15T04:52:50;75.18;;;36.90;;
55082;SDS011;40978;52.850;6.506;2022-11-15T04:55:17;72.45;;;34.28;;
55082;SDS011;40978;52.850;6.506;2022-11-15T04:57:43;78.32;;;36.78;;
55082;SDS011;40978;52.850;6.506;2022-11-15T05:00:10;90.38;;;37.00;;
55082;SDS011;40978;52.850;6.506;2022-11-15T05:02:37;70.88;;;36.45;;
55082;SDS011;40978;52.850;6.506;2022-11-15T05:05:22;73.53;;;35.17;;
55082;SDS011;40978;52.850;6.506;2022-11-15T05:07:49;80.82;;;35.55;;
55082;SDS011;40978;52.850;6.506;2022-11-15T05:10:15;66.47;;;35.33;;
55082;SDS011;40978;52.850;6.506;2022-11-15T05:12:41;75.13;;;35.92;;
55082;SDS011;40978;52.850;6.506;2022-11-15T05:15:07;67.35;;;34.45;;
55082;SDS011;40978;52.850;6.506;2022-11-15T05:17:33;75.55;;;36.75;;
55082;SDS011;40978;52.850;6.506;2022-11-15T05:19:59;70.07;;;35.97;;
55082;SDS011;40978;52.850;6.506;2022-11-15T05:22:24;79.68;;;37.42;;
55082;SDS011;40978;52.850;6.506;2022-11-15T05:24:50;60.03;;;35.53;;
55082;SDS011;40978;52.850;6.506;2022-11-15T05:27:16;71.53;;;36.92;;
55082;SDS011;40978;52.850;6.506;2022-11-15T05:29:41;70.78;;;37.20;;
55082;SDS011;40978;52.850;6.506;2022-11-15T05:32:08;72.88;;;36.33;;
55082;SDS011;40978;52.850;6.506;2022-11-15T05:34:35;55.75;;;33.13;;
55082;SDS011;40978;52.850;6.506;2022-11-15T05:37:01;57.78;;;34.28;;
55082;SDS011;40978;52.850;6.506;2022-11-15T05:39:28;60.25;;;33.67;;
55082;SDS011;40978;52.850;6.506;2022-11-15T05:41:59;56.83;;;33.45;;
55082;SDS011;40978;52.850;6.506;2022-11-15T05:44:31;52.85;;;32.25;;
55082;SDS011;40978;52.850;6.506;2022-11-15T05:46:57;56.83;;;33.13;;
55082;SDS011;40978;52.850;6.506;2022-11-15T05:49:24;54.40;;;32.80;;
55082;SDS011;40978;52.850;6.506;2022-11-15T05:51:54;50.58;;;32.10;;
55082;SDS011;40978;52.850;6.506;2022-11-15T05:54:20;57.83;;;32.75;;
55082;SDS011;40978;52.850;6.506;2022-11-15T05:56:48;57.40;;;33.00;;
55082;SDS011;40978;52.850;6.506;2022-11-15T05:59:14;56.70;;;32.13;;
55082;SDS011;40978;52.850;6.506;2022-11-15T06:01:39;51.58;;;30.73;;
55082;SDS011;40978;52.850;6.506;2022-11-15T06:04:06;51.30;;;31.38;;
55082;SDS011;40978;52.850;6.506;2022-11-15T06:06:32;55.30;;;31.75;;
55082;SDS011;40978;52.850;6.506;2022-11-15T06:08:57;54.55;;;32.88;;
55082;SDS011;40978;52.850;6.506;2022-11-15T06:11:23;51.08;;;30.77;;
55082;SDS011;40978;52.850;6.506;2022-11-15T06:13:49;52.50;;;31.05;;
55082;SDS011;40978;52.850;6.506;2022-11-15T06:16:14;58.15;;;31.77;;
55082;SDS011;40978;52.850;6.506;2022-11-15T06:18:40;55.67;;;30.95;;
55082;SDS011;40978;52.850;6.506;2022-11-15T06:21:06;57.80;;;31.95;;
55082;SDS011;40978;52.850;6.506;2022-11-15T06:23:32;55.67;;;31.98;;
55082;SDS011;40978;52.850;6.506;2022-11-15T06:25:59;56.15;;;31.38;;
55082;SDS011;40978;52.850;6.506;2022-11-15T06:28:29;53.75;;;31.17;;
55082;SDS011;40978;52.850;6.506;2022-11-15T06:30:55;51.25;;;31.23;;
55082;SDS011;40978;52.850;6.506;2022-11-15T06:33:21;49.55;;;29.20;;
55082;SDS011;40978;52.850;6.506;2022-11-15T06:35:47;49.15;;;29.05;;
55082;SDS011;40978;52.850;6.506;2022-11-15T06:38:13;51.30;;;30.48;;
55082;SDS011;40978;52.850;6.506;2022-11-15T06:40:39;53.08;;;30.13;;
55082;SDS011;40978;52.850;6.506;2022-11-15T06:43:05;49.58;;;30.00;;
55082;SDS011;40978;52.850;6.506;2022-11-15T06:45:31;50.65;;;30.48;;
55082;SDS011;40978;52.850;6.506;2022-11-15T06:47:57;48.00;;;29.42;;
55082;SDS011;40978;52.850;6.506;2022-11-15T06:50:23;52.47;;;30.00;;
55082;SDS011;40978;52.850;6.506;2022-11-15T06:52:49;48.95;;;27.88;;
55082;SDS011;40978;52.850;6.506;2022-11-15T06:55:15;44.50;;;28.42;;
55082;SDS011;40978;52.850;6.506;2022-11-15T06:57:51;43.83;;;28.42;;
55082;SDS011;40978;52.850;6.506;2022-11-15T07:00:18;49.20;;;28.88;;
55082;SDS011;40978;52.850;6.506;2022-11-15T07:02:44;43.95;;;27.70;;
55082;SDS011;40978;52.850;6.506;2022-11-15T07:05:11;39.88;;;27.80;;
55082;SDS011;40978;52.850;6.506;2022-11-15T07:07:38;39.90;;;27.25;;
55082;SDS011;40978;52.850;6.506;2022-11-15T07:10:03;43.88;;;27.23;;
55082;SDS011;40978;52.850;6.506;2022-11-15T07:12:30;37.85;;;26.63;;
55082;SDS011;40978;52.850;6.506;2022-11-15T07:14:55;39.17;;;25.85;;
55082;SDS011;40978;52.850;6.506;2022-11-15T07:17:21;40.65;;;26.15;;
55082;SDS011;40978;52.850;6.506;2022-11-15T07:19:47;35.03;;;25.52;;
55082;SDS011;40978;52.850;6.506;2022-11-15T07:22:13;42.08;;;28.65;;
55082;SDS011;40978;52.850;6.506;2022-11-15T07:24:38;36.53;;;24.92;;
55082;SDS011;40978;52.850;6.506;2022-11-15T07:27:04;37.67;;;25.75;;
55082;SDS011;40978;52.850;6.506;2022-11-15T07:29:29;38.80;;;26.80;;
55082;SDS011;40978;52.850;6.506;2022-11-15T07:31:55;35.60;;;24.67;;
55082;SDS011;40978;52.850;6.506;2022-11-15T07:34:21;36.75;;;24.42;;
55082;SDS011;40978;52.850;6.506;2022-11-15T07:36:47;31.40;;;24.38;;
55082;SDS011;40978;52.850;6.506;2022-11-15T07:39:13;33.55;;;24.35;;
55082;SDS011;40978;52.850;6.506;2022-11-15T07:41:39;31.83;;;24.52;;
55082;SDS011;40978;52.850;6.506;2022-11-15T07:44:04;32.35;;;24.42;;
55082;SDS011;40978;52.850;6.506;2022-11-15T07:46:30;32.78;;;25.42;;
55082;SDS011;40978;52.850;6.506;2022-11-15T07:48:56;39.60;;;25.23;;
55082;SDS011;40978;52.850;6.506;2022-11-15T07:51:22;33.15;;;24.85;;
55082;SDS011;40978;52.850;6.506;2022-11-15T07:53:48;33.10;;;24.08;;
55082;SDS011;40978;52.850;6.506;2022-11-15T07:56:14;28.33;;;23.00;;
55082;SDS011;40978;52.850;6.506;2022-11-15T07:58:39;32.95;;;23.60;;
55082;SDS011;40978;52.850;6.506;2022-11-15T08:01:06;29.35;;;21.65;;
55082;SDS011;40978;52.850;6.506;2022-11-15T08:03:33;29.70;;;22.73;;
55082;SDS011;40978;52.850;6.506;2022-11-15T08:05:59;28.35;;;22.10;;
55082;SDS011;40978;52.850;6.506;2022-11-15T08:08:25;32.70;;;23.35;;
55082;SDS011;40978;52.850;6.506;2022-11-15T08:10:50;28.65;;;22.30;;
55082;SDS011;40978;52.850;6.506;2022-11-15T08:13:16;28.80;;;20.70;;
55082;SDS011;40978;52.850;6.506;2022-11-15T08:15:42;29.65;;;21.60;;
55082;SDS011;40978;52.850;6.506;2022-11-15T08:18:10;28.58;;;22.10;;
55082;SDS011;40978;52.850;6.506;2022-11-15T08:20:40;28.52;;;21.25;;
55082;SDS011;40978;52.850;6.506;2022-11-15T08:23:06;27.60;;;21.92;;
55082;SDS011;40978;52.850;6.506;2022-11-15T08:25:33;23.63;;;20.30;;
55082;SDS011;40978;52.850;6.506;2022-11-15T08:28:00;25.65;;;21.17;;
55082;SDS011;40978;52.850;6.506;2022-11-15T08:30:27;31.63;;;20.50;;
55082;SDS011;40978;52.850;6.506;2022-11-15T08:32:53;28.02;;;21.30;;
55082;SDS011;40978;52.850;6.506;2022-11-15T08:35:21;30.35;;;23.27;;
55082;SDS011;40978;52.850;6.506;2022-11-15T08:37:47;23.85;;;20.33;;
55082;SDS011;40978;52.850;6.506;2022-11-15T08:40:13;25.02;;;21.95;;
55082;SDS011;40978;52.850;6.506;2022-11-15T08:42:39;25.33;;;20.80;;
55082;SDS011;40978;52.850;6.506;2022-11-15T08:45:05;28.88;;;21.63;;
55082;SDS011;40978;52.850;6.506;2022-11-15T08:47:31;26.65;;;20.73;;
55082;SDS011;40978;52.850;6.506;2022-11-15T08:49:58;24.90;;;20.42;;
55082;SDS011;40978;52.850;6.506;2022-11-15T08:52:23;29.48;;;20.65;;
55082;SDS011;40978;52.850;6.506;2022-11-15T08:54:49;27.42;;;21.73;;
55082;SDS011;40978;52.850;6.506;2022-11-15T08:57:15;27.33;;;19.98;;
55082;SDS011;40978;52.850;6.506;2022-11-15T08:59:41;27.55;;;21.20;;
55082;SDS011;40978;52.850;6.506;2022-11-15T09:02:10;25.92;;;20.98;;
55082;SDS011;40978;52.850;6.506;2022-11-15T09:04:40;25.75;;;20.45;;
55082;SDS011;40978;52.850;6.506;2022-11-15T09:07:08;26.40;;;20.88;;
55082;SDS011;40978;52.850;6.506;2022-11-15T09:09:37;27.38;;;20.63;;
55082;SDS011;40978;52.850;6.506;2022-11-15T09:12:03;26.67;;;20.60;;
55082;SDS011;40978;52.850;6.506;2022-11-15T09:14:30;24.77;;;20.30;;
55082;SDS011;40978;52.850;6.506;2022-11-15T09:16:56;26.83;;;20.30;;
55082;SDS011;40978;52.850;6.506;2022-11-15T09:19:22;27.05;;;20.58;;
55082;SDS011;40978;52.850;6.506;2022-11-15T09:21:48;27.25;;;19.67;;
55082;SDS011;40978;52.850;6.506;2022-11-15T09:24:13;27.98;;;20.17;;
55082;SDS011;40978;52.850;6.506;2022-11-15T09:26:40;23.17;;;19.90;;
55082;SDS011;40978;52.850;6.506;2022-11-15T09:29:06;24.40;;;20.27;;
55082;SDS011;40978;52.850;6.506;2022-11-15T09:31:31;23.75;;;19.48;;
55082;SDS011;40978;52.850;6.506;2022-11-15T09:33:57;21.85;;;19.35;;
55082;SDS011;40978;52.850;6.506;2022-11-15T09:36:23;23.02;;;19.30;;
55082;SDS011;40978;52.850;6.506;2022-11-15T09:38:49;22.70;;;18.58;;
55082;SDS011;40978;52.850;6.506;2022-11-15T09:44:01;23.80;;;20.45;;
55082;SDS011;40978;52.850;6.506;2022-11-15T09:49:34;26.60;;;19.75;;
55082;SDS011;40978;52.850;6.506;2022-11-15T09:52:00;23.80;;;17.88;;
55082;SDS011;40978;52.850;6.506;2022-11-15T09:57:11;22.50;;;17.67;;
55082;SDS011;40978;52.850;6.506;2022-11-15T09:59:45;21.67;;;17.27;;
55082;SDS011;40978;52.850;6.506;2022-11-15T10:05:14;22.40;;;17.20;;
55082;SDS011;40978;52.850;6.506;2022-11-15T10:12:47;19.77;;;16.23;;
55082;SDS011;40978;52.850;6.506;2022-11-15T10:15:15;18.77;;;15.77;;
55082;SDS011;40978;52.850;6.506;2022-11-15T10:20:32;22.95;;;15.32;;
55082;SDS011;40978;52.850;6.506;2022-11-15T10:23:06;19.65;;;14.43;;
55082;SDS011;40978;52.850;6.506;2022-11-15T10:25:40;17.67;;;14.35;;
55082;SDS011;40978;52.850;6.506;2022-11-15T10:28:11;15.75;;;13.27;;
55082;SDS011;40978;52.850;6.506;2022-11-15T10:30:47;16.50;;;14.35;;
55082;SDS011;40978;52.850;6.506;2022-11-15T10:38:49;13.02;;;11.48;;
55082;SDS011;40978;52.850;6.506;2022-11-15T10:41:17;12.95;;;11.48;;
55082;SDS011;40978;52.850;6.506;2022-11-15T10:46:32;12.07;;;10.75;;
55082;SDS011;40978;52.850;6.506;2022-11-15T10:49:15;12.13;;;10.38;;
55082;SDS011;40978;52.850;6.506;2022-11-15T10:51:45;11.13;;;8.48;;
55082;SDS011;40978;52.850;6.506;2022-11-15T10:57:07;8.15;;;7.38;;
55082;SDS011;40978;52.850;6.506;2022-11-15T10:59:48;11.70;;;8.25;;
55082;SDS011;40978;52.850;6.506;2022-11-15T11:02:30;7.85;;;6.07;;
55082;SDS011;40978;52.850;6.506;2022-11-15T11:08:09;5.95;;;3.60;;
55082;SDS011;40978;52.850;6.506;2022-11-15T11:10:56;7.28;;;3.65;;
55082;SDS011;40978;52.850;6.506;2022-11-15T11:13:27;6.68;;;2.55;;
55082;SDS011;40978;52.850;6.506;2022-11-15T11:15:59;6.00;;;3.10;;
55082;SDS011;40978;52.850;6.506;2022-11-15T11:24:28;5.32;;;2.22;;
55082;SDS011;40978;52.850;6.506;2022-11-15T11:27:13;6.03;;;2.67;;
55082;SDS011;40978;52.850;6.506;2022-11-15T11:35:14;7.05;;;2.40;;
55082;SDS011;40978;52.850;6.506;2022-11-15T11:37:47;5.90;;;2.38;;
55082;SDS011;40978;52.850;6.506;2022-11-15T11:40:22;5.38;;;2.38;;
55082;SDS011;40978;52.850;6.506;2022-11-15T11:42:56;3.80;;;1.90;;
55082;SDS011;40978;52.850;6.506;2022-11-15T11:48:14;7.97;;;2.67;;
55082;SDS011;40978;52.850;6.506;2022-11-15T11:51:03;6.00;;;2.75;;
55082;SDS011;40978;52.850;6.506;2022-11-15T11:53:39;3.92;;;2.03;;
55082;SDS011;40978;52.850;6.506;2022-11-15T11:56:27;6.18;;;3.00;;
55082;SDS011;40978;52.850;6.506;2022-11-15T11:58:59;8.55;;;3.30;;
55082;SDS011;40978;52.850;6.506;2022-11-15T12:04:08;7.05;;;3.72;;
55082;SDS011;40978;52.850;6.506;2022-11-15T12:06:50;5.93;;;3.40;;
55082;SDS011;40978;52.850;6.506;2022-11-15T12:09:22;4.97;;;3.97;;
55082;SDS011;40978;52.850;6.506;2022-11-15T12:12:13;7.13;;;3.35;;
55082;SDS011;40978;52.850;6.506;2022-11-15T12:14:51;4.95;;;3.38;;
55082;SDS011;40978;52.850;6.506;2022-11-15T12:17:21;7.32;;;3.63;;
55082;SDS011;40978;52.850;6.506;2022-11-15T12:19:50;11.50;;;4.30;;
55082;SDS011;40978;52.850;6.506;2022-11-15T12:22:39;7.70;;;3.20;;
55082;SDS011;40978;52.850;6.506;2022-11-15T12:25:13;5.90;;;3.13;;
55082;SDS011;40978;52.850;6.506;2022-11-15T12:30:38;6.75;;;3.70;;
55082;SDS011;40978;52.850;6.506;2022-11-15T12:36:11;6.22;;;2.75;;
55082;SDS011;40978;52.850;6.506;2022-11-15T12:38:51;4.55;;;2.80;;
55082;SDS011;40978;52.850;6.506;2022-11-15T12:41:22;4.60;;;2.08;;
55082;SDS011;40978;52.850;6.506;2022-11-15T12:43:50;7.07;;;2.78;;
55082;SDS011;40978;52.850;6.506;2022-11-15T12:57:09;4.55;;;2.38;;
55082;SDS011;40978;52.850;6.506;2022-11-15T13:02:28;4.38;;;2.05;;
55082;SDS011;40978;52.850;6.506;2022-11-15T13:17:45;4.70;;;1.30;;
55082;SDS011;40978;52.850;6.506;2022-11-15T13:33:17;4.88;;;1.27;;
55082;SDS011;40978;52.850;6.506;2022-11-15T13:35:47;4.13;;;1.13;;
55082;SDS011;40978;52.850;6.506;2022-11-15T13:38:19;3.50;;;1.30;;
55082;SDS011;40978;52.850;6.506;2022-11-15T13:40:52;2.85;;;1.25;;
55082;SDS011;40978;52.850;6.506;2022-11-15T13:48:38;2.83;;;1.10;;
55082;SDS011;40978;52.850;6.506;2022-11-15T13:51:10;4.32;;;1.05;;
55082;SDS011;40978;52.850;6.506;2022-11-15T13:53:52;2.45;;;0.70;;
55082;SDS011;40978;52.850;6.506;2022-11-15T13:56:21;3.45;;;0.85;;
55082;SDS011;40978;52.850;6.506;2022-11-15T13:58:47;3.03;;;1.00;;
55082;SDS011;40978;52.850;6.506;2022-11-15T14:01:14;2.70;;;0.70;;
55082;SDS011;40978;52.850;6.506;2022-11-15T14:03:49;3.03;;;0.90;;
55082;SDS011;40978;52.850;6.506;2022-11-15T14:06:19;3.92;;;0.95;;
55082;SDS011;40978;52.850;6.506;2022-11-15T14:11:52;1.88;;;0.90;;
55082;SDS011;40978;52.850;6.506;2022-11-15T14:14:22;5.05;;;1.45;;
55082;SDS011;40978;52.850;6.506;2022-11-15T14:16:51;3.42;;;0.80;;
55082;SDS011;40978;52.850;6.506;2022-11-15T14:24:35;2.45;;;0.50;;
55082;SDS011;40978;52.850;6.506;2022-11-15T14:29:51;2.55;;;0.80;;
55082;SDS011;40978;52.850;6.506;2022-11-15T14:34:48;2.45;;;1.10;;
55082;SDS011;40978;52.850;6.506;2022-11-15T14:39:49;4.13;;;0.98;;
55082;SDS011;40978;52.850;6.506;2022-11-15T14:42:15;2.30;;;1.00;;
55082;SDS011;40978;52.850;6.506;2022-11-15T14:44:41;5.20;;;1.00;;
55082;SDS011;40978;52.850;6.506;2022-11-15T14:47:07;2.50;;;0.80;;
55082;SDS011;40978;52.850;6.506;2022-11-15T14:49:33;4.22;;;1.13;;
55082;SDS011;40978;52.850;6.506;2022-11-15T14:51:58;3.90;;;1.52;;
55082;SDS011;40978;52.850;6.506;2022-11-15T14:54:24;3.70;;;1.38;;
55082;SDS011;40978;52.850;6.506;2022-11-15T14:56:50;6.32;;;2.17;;
55082;SDS011;40978;52.850;6.506;2022-11-15T14:59:15;4.22;;;2.05;;
55082;SDS011;40978;52.850;6.506;2022-11-15T15:01:41;3.25;;;1.92;;
55082;SDS011;40978;52.850;6.506;2022-11-15T15:04:08;5.05;;;2.88;;
55082;SDS011;40978;52.850;6.506;2022-11-15T15:06:35;4.03;;;2.85;;
55082;SDS011;40978;52.850;6.506;2022-11-15T15:09:01;5.93;;;3.03;;
55082;SDS011;40978;52.850;6.506;2022-11-15T15:11:27;6.07;;;3.15;;
55082;SDS011;40978;52.850;6.506;2022-11-15T15:13:55;5.78;;;4.15;;
55082;SDS011;40978;52.850;6.506;2022-11-15T15:16:23;5.13;;;3.10;;
55082;SDS011;40978;52.850;6.506;2022-11-15T15:18:50;4.50;;;4.10;;
55082;SDS011;40978;52.850;6.506;2022-11-15T15:21:22;4.97;;;4.22;;
55082;SDS011;40978;52.850;6.506;2022-11-15T15:23:50;5.28;;;4.55;;
55082;SDS011;40978;52.850;6.506;2022-11-15T15:26:16;6.35;;;4.10;;
55082;SDS011;40978;52.850;6.506;2022-11-15T15:28:42;5.88;;;5.00;;
55082;SDS011;40978;52.850;6.506;2022-11-15T15:31:09;4.90;;;4.35;;
55082;SDS011;40978;52.850;6.506;2022-11-15T15:33:35;5.30;;;4.65;;
55082;SDS011;40978;52.850;6.506;2022-11-15T15:36:01;5.38;;;4.72;;
55082;SDS011;40978;52.850;6.506;2022-11-15T15:38:30;5.30;;;4.72;;
55082;SDS011;40978;52.850;6.506;2022-11-15T15:40:56;5.25;;;4.60;;
55082;SDS011;40978;52.850;6.506;2022-11-15T15:43:22;4.40;;;3.97;;
55082;SDS011;40978;52.850;6.506;2022-11-15T15:45:47;6.40;;;5.80;;
55082;SDS011;40978;52.850;6.506;2022-11-15T15:48:14;7.47;;;5.10;;
55082;SDS011;40978;52.850;6.506;2022-11-15T15:50:41;6.15;;;3.88;;
55082;SDS011;40978;52.850;6.506;2022-11-15T15:53:08;5.78;;;3.67;;
55082;SDS011;40978;52.850;6.506;2022-11-15T15:55:35;6.35;;;3.78;;
55082;SDS011;40978;52.850;6.506;2022-11-15T15:58:02;3.28;;;2.97;;
55082;SDS011;40978;52.850;6.506;2022-11-15T16:00:28;4.80;;;3.55;;
55082;SDS011;40978;52.850;6.506;2022-11-15T16:02:54;4.82;;;2.90;;
55082;SDS011;40978;52.850;6.506;2022-11-15T16:05:20;5.00;;;2.60;;
55082;SDS011;40978;52.850;6.506;2022-11-15T16:07:46;3.55;;;2.75;;
55082;SDS011;40978;52.850;6.506;2022-11-15T16:10:15;4.35;;;2.30;;
55082;SDS011;40978;52.850;6.506;2022-11-15T16:12:45;3.80;;;2.22;;
55082;SDS011;40978;52.850;6.506;2022-11-15T16:15:11;5.13;;;2.53;;
55082;SDS011;40978;52.850;6.506;2022-11-15T16:17:41;5.80;;;2.00;;
55082;SDS011;40978;52.850;6.506;2022-11-15T16:20:29;3.30;;;1.98;;
55082;SDS011;40978;52.850;6.506;2022-11-15T16:23:08;4.13;;;2.33;;
55082;SDS011;40978;52.850;6.506;2022-11-15T16:28:30;3.47;;;1.80;;
55082;SDS011;40978;52.850;6.506;2022-11-15T16:31:09;4.95;;;1.65;;
55082;SDS011;40978;52.850;6.506;2022-11-15T16:33:36;3.08;;;1.40;;
55082;SDS011;40978;52.850;6.506;2022-11-15T16:36:11;5.18;;;1.23;;
55082;SDS011;40978;52.850;6.506;2022-11-15T16:38:40;3.15;;;1.40;;
55082;SDS011;40978;52.850;6.506;2022-11-15T16:41:06;2.05;;;1.30;;
55082;SDS011;40978;52.850;6.506;2022-11-15T16:43:31;3.75;;;1.27;;
55082;SDS011;40978;52.850;6.506;2022-11-15T16:45:57;2.38;;;1.10;;
55082;SDS011;40978;52.850;6.506;2022-11-15T16:48:24;3.90;;;1.10;;
55082;SDS011;40978;52.850;6.506;2022-11-15T16:50:57;2.78;;;1.08;;
55082;SDS011;40978;52.850;6.506;2022-11-15T16:53:24;3.58;;;1.33;;
55082;SDS011;40978;52.850;6.506;2022-11-15T16:55:51;2.55;;;1.38;;
55082;SDS011;40978;52.850;6.506;2022-11-15T16:58:17;3.53;;;1.02;;
55082;SDS011;40978;52.850;6.506;2022-11-15T17:00:42;2.28;;;0.98;;
55082;SDS011;40978;52.850;6.506;2022-11-15T17:03:08;5.10;;;0.90;;
55082;SDS011;40978;52.850;6.506;2022-11-15T17:05:34;4.93;;;1.50;;
55082;SDS011;40978;52.850;6.506;2022-11-15T17:08:00;1.33;;;0.82;;
55082;SDS011;40978;52.850;6.506;2022-11-15T17:10:26;2.45;;;0.95;;